createdAt,value
2022-12-01T00:02:10.799Z,43.61
2022-12-01T00:07:14.327Z,43.49
2022-12-01T00:12:17.695Z,43.46
2022-12-01T00:17:21.083Z,43.56
2022-12-01T00:22:24.473Z,43.55
2022-12-01T00:27:27.832Z,43.53
2022-12-01T00:32:31.279Z,43.47
2022-12-01T00:37:34.771Z,43.48
2022-12-01T00:42:38.148Z,43.46
2022-12-01T00:47:41.515Z,43.53
2022-12-01T00:52:44.936Z,43.39
2022-12-01T00:57:48.299Z,43.39
2022-12-01T01:02:51.720Z,43.30
2022-12-01T01:07:55.170Z,43.16
2022-12-01T01:12:58.679Z,43.12
2022-12-01T01:18:02.094Z,43.27
2022-12-01T01:23:05.580Z,43.23
2022-12-01T01:28:08.969Z,43.21
2022-12-01T01:33:12.368Z,43.03
2022-12-01T01:38:15.741Z,43.10
2022-12-01T01:43:19.111Z,43.35
2022-12-01T01:48:22.871Z,43.37
2022-12-01T01:53:26.305Z,43.05
2022-12-01T01:58:29.679Z,43.17
2022-12-01T02:03:33.085Z,43.19
2022-12-01T02:08:36.925Z,42.84
2022-12-01T02:13:40.428Z,43.04
2022-12-01T02:18:43.801Z,43.13
2022-12-01T02:23:47.195Z,43.22
2022-12-01T02:28:50.594Z,43.18
2022-12-01T02:33:53.988Z,43.32
2022-12-01T02:38:57.405Z,43.28
2022-12-01T02:44:00.776Z,43.36
2022-12-01T02:49:04.200Z,43.43
2022-12-01T02:54:07.590Z,43.18
2022-12-01T02:59:11.226Z,43.04
2022-12-01T03:04:14.781Z,42.88
2022-12-01T03:09:18.175Z,42.65
2022-12-01T03:14:21.604Z,42.73
2022-12-01T03:19:25.004Z,42.63
2022-12-01T03:24:29.441Z,42.65
2022-12-01T03:29:32.844Z,43.05
2022-12-01T03:34:36.261Z,43.04
2022-12-01T03:39:39.633Z,43.08
2022-12-01T03:44:43.045Z,43.20
2022-12-01T03:49:46.616Z,43.35
2022-12-01T03:54:50.465Z,43.43
2022-12-01T03:59:53.856Z,43.51
2022-12-01T04:04:57.215Z,43.48
2022-12-01T04:10:00.635Z,43.25
2022-12-01T04:15:04.172Z,43.47
2022-12-01T04:20:07.692Z,43.59
2022-12-01T04:25:11.120Z,43.32
2022-12-01T04:30:14.499Z,43.62
2022-12-01T04:35:17.936Z,43.71
2022-12-01T04:40:21.669Z,43.49
2022-12-01T04:45:25.211Z,43.41
2022-12-01T04:50:28.580Z,43.84
2022-12-01T04:55:31.975Z,43.77
2022-12-01T05:00:35.419Z,43.49
2022-12-01T05:05:38.840Z,43.36
2022-12-01T05:10:42.251Z,43.26
2022-12-01T05:15:45.631Z,43.61
2022-12-01T05:20:58.229Z,43.40
2022-12-01T05:26:01.611Z,43.17
2022-12-01T05:31:05.031Z,43.32
2022-12-01T05:36:08.651Z,43.39
2022-12-01T05:41:12.056Z,43.22
2022-12-01T05:46:15.579Z,43.25
2022-12-01T05:51:18.985Z,43.57
2022-12-01T05:56:22.520Z,43.64
2022-12-01T06:01:27.931Z,43.63
2022-12-01T06:06:31.406Z,43.67
2022-12-01T06:11:34.803Z,43.81
2022-12-01T06:16:38.233Z,43.73
2022-12-01T06:21:41.751Z,43.79
2022-12-01T06:26:45.316Z,43.64
2022-12-01T06:31:48.707Z,43.63
2022-12-01T06:36:52.214Z,43.73
2022-12-01T06:41:55.630Z,43.94
2022-12-01T06:46:58.999Z,43.79
2022-12-01T06:52:03.420Z,43.63
2022-12-01T06:57:06.873Z,43.49
2022-12-01T07:02:10.623Z,43.51
2022-12-01T07:07:14.267Z,43.45
2022-12-01T07:12:17.659Z,43.90
2022-12-01T07:17:21.086Z,44.21
2022-12-01T07:22:29.505Z,44.50
2022-12-01T07:27:35.815Z,45.22
2022-12-01T07:32:39.256Z,45.86
2022-12-01T07:37:42.678Z,46.39
2022-12-01T07:42:46.238Z,45.68
2022-12-01T07:47:49.673Z,46.34
2022-12-01T07:52:53.159Z,46.81
2022-12-01T07:57:56.683Z,46.32
2022-12-01T08:03:00.156Z,46.78
2022-12-01T08:08:03.801Z,47.12
2022-12-01T08:13:07.267Z,47.44
2022-12-01T08:18:11.732Z,47.37
2022-12-01T08:23:15.123Z,47.04
2022-12-01T08:28:18.618Z,46.75
2022-12-01T08:33:22.068Z,46.65
2022-12-01T08:38:25.466Z,46.46
2022-12-01T08:43:56.049Z,45.21
2022-12-01T08:48:54.821Z,44.92
2022-12-01T08:53:58.279Z,45.76
2022-12-01T08:59:01.797Z,47.52
2022-12-01T09:04:09.138Z,47.58
2022-12-01T09:09:12.815Z,46.61
2022-12-01T09:14:16.262Z,47.75
2022-12-01T09:19:24.143Z,46.76
2022-12-01T09:24:28.430Z,46.43
2022-12-01T09:29:31.808Z,46.43
2022-12-01T09:34:35.288Z,46.20
2022-12-01T09:39:38.727Z,45.67
2022-12-01T09:44:42.129Z,45.87
2022-12-01T09:49:45.762Z,45.96
2022-12-01T09:54:49.489Z,45.85
2022-12-01T09:59:52.907Z,45.94
2022-12-01T10:04:56.473Z,46.69
2022-12-01T10:09:59.990Z,46.12
2022-12-01T10:15:03.431Z,45.72
2022-12-01T10:20:06.867Z,45.22
2022-12-01T10:25:10.280Z,45.46
2022-12-01T10:30:13.771Z,45.46
2022-12-01T10:35:17.270Z,45.33
2022-12-01T10:40:21.210Z,46.01
2022-12-01T10:45:24.588Z,46.20
2022-12-01T10:50:28.184Z,46.07
2022-12-01T10:55:31.843Z,45.11
2022-12-01T11:00:58.625Z,44.91
2022-12-01T11:05:59.150Z,45.12
2022-12-01T11:11:02.565Z,44.31
2022-12-01T11:16:05.983Z,44.13
2022-12-01T11:21:09.468Z,45.44
2022-12-01T11:26:13.273Z,46.55
2022-12-01T11:31:19.536Z,46.03
2022-12-01T11:36:23.077Z,44.79
2022-12-01T11:41:26.497Z,44.79
2022-12-01T11:46:29.877Z,44.72
2022-12-01T11:51:37.233Z,44.75
2022-12-01T11:56:40.748Z,44.69
2022-12-01T12:01:44.264Z,44.46
2022-12-01T12:06:47.691Z,44.34
2022-12-01T12:11:51.108Z,43.84
2022-12-01T12:16:54.578Z,43.65
2022-12-01T12:22:00.060Z,43.86
2022-12-01T12:27:03.500Z,43.98
2022-12-01T12:32:07.008Z,43.98
2022-12-01T12:37:10.614Z,43.65
2022-12-01T12:42:14.039Z,43.58
2022-12-01T12:47:17.558Z,43.67
2022-12-01T12:52:20.983Z,43.36
2022-12-01T12:57:24.461Z,43.50
2022-12-01T13:02:28.273Z,43.54
2022-12-01T13:07:31.744Z,43.72
2022-12-01T13:12:35.622Z,43.25
2022-12-01T13:17:39.013Z,43.92
2022-12-01T13:22:42.635Z,43.94
2022-12-01T13:27:46.287Z,43.45
2022-12-01T13:32:49.744Z,43.29
2022-12-01T13:37:53.171Z,43.24
2022-12-01T13:42:56.620Z,43.33
2022-12-01T13:48:00.020Z,42.93
2022-12-01T13:53:03.431Z,43.08
2022-12-01T13:58:06.895Z,43.51
2022-12-01T14:03:10.476Z,43.87
2022-12-01T14:08:19.577Z,43.73
2022-12-01T14:13:26.205Z,43.59
2022-12-01T14:18:29.636Z,43.48
2022-12-01T14:23:33.864Z,43.91
2022-12-01T14:28:38.360Z,45.80
2022-12-01T14:33:41.756Z,48.90
2022-12-01T14:38:45.135Z,46.06
2022-12-01T14:44:07.337Z,44.96
2022-12-01T14:49:10.765Z,44.64
2022-12-01T14:54:14.236Z,44.34
2022-12-01T14:59:17.751Z,44.60
2022-12-01T15:04:21.272Z,44.85
2022-12-01T15:09:33.425Z,46.42
2022-12-01T15:14:37.458Z,45.64
2022-12-01T15:19:41.001Z,45.05
2022-12-01T15:24:44.419Z,44.89
2022-12-01T15:29:48.170Z,44.86
2022-12-01T15:34:52.272Z,44.27
2022-12-01T15:40:10.069Z,44.68
2022-12-01T15:45:21.757Z,44.46
2022-12-01T15:50:25.147Z,44.56
2022-12-01T15:55:28.540Z,44.46
2022-12-01T16:00:31.912Z,44.47
2022-12-01T16:05:35.287Z,44.96
2022-12-01T16:11:06.455Z,44.96
2022-12-01T16:16:09.998Z,44.73
2022-12-01T16:21:13.696Z,43.66
2022-12-01T16:26:17.119Z,44.01
2022-12-01T16:31:20.588Z,43.40
2022-12-01T16:36:27.057Z,43.35
2022-12-01T16:41:36.398Z,43.70
2022-12-01T16:46:41.616Z,43.48
2022-12-01T16:52:11.109Z,43.41
2022-12-01T16:57:08.364Z,43.17
2022-12-01T17:02:11.947Z,42.94
2022-12-01T17:07:15.513Z,42.95
2022-12-01T17:12:18.880Z,42.80
2022-12-01T17:17:22.263Z,42.59
2022-12-01T17:22:25.640Z,42.47
2022-12-01T17:27:29.660Z,42.34
2022-12-01T17:32:33.227Z,42.19
2022-12-01T17:37:36.993Z,42.07
2022-12-01T17:42:42.287Z,42.20
2022-12-01T17:47:47.772Z,42.10
2022-12-01T17:52:52.243Z,42.21
2022-12-01T17:57:56.327Z,42.10
2022-12-01T18:03:00.006Z,41.91
2022-12-01T18:08:03.589Z,41.95
2022-12-01T18:13:07.124Z,42.02
2022-12-01T18:18:10.538Z,42.16
2022-12-01T18:23:13.961Z,41.95
2022-12-01T18:28:17.395Z,42.24
2022-12-01T18:33:20.949Z,42.18
2022-12-01T18:38:25.012Z,42.06
2022-12-01T18:43:29.435Z,41.83
2022-12-01T18:48:32.807Z,41.80
2022-12-01T18:53:36.203Z,41.72
2022-12-01T18:58:39.556Z,41.83
2022-12-01T19:03:42.973Z,41.70
2022-12-01T19:08:46.459Z,41.55
2022-12-01T19:13:49.858Z,41.40
2022-12-01T19:18:53.243Z,41.55
2022-12-01T19:23:56.619Z,41.59
2022-12-01T19:29:00.381Z,41.75
2022-12-01T19:34:04.647Z,42.02
2022-12-01T19:39:08.209Z,41.79
2022-12-01T19:44:11.913Z,41.82
2022-12-01T19:49:15.325Z,41.66
2022-12-01T19:54:18.745Z,42.13
2022-12-01T19:59:22.221Z,42.97
2022-12-01T20:04:25.686Z,42.67
2022-12-01T20:09:29.111Z,42.58
2022-12-01T20:14:32.479Z,42.05
2022-12-01T20:19:35.880Z,42.54
2022-12-01T20:24:41.216Z,42.19
2022-12-01T20:29:45.018Z,42.02
2022-12-01T20:34:48.725Z,42.36
2022-12-01T20:39:52.546Z,42.05
2022-12-01T20:44:56.008Z,42.19
2022-12-01T20:49:59.396Z,42.03
2022-12-01T20:55:02.810Z,41.71
2022-12-01T21:00:06.208Z,41.84
2022-12-01T21:05:09.631Z,41.81
2022-12-01T21:10:18.502Z,41.70
2022-12-01T21:15:23.441Z,41.75
2022-12-01T21:20:27.171Z,42.13
2022-12-01T21:25:31.007Z,41.98
2022-12-01T21:30:34.404Z,42.18
2022-12-01T21:35:37.951Z,41.64
2022-12-01T21:40:42.446Z,41.96
2022-12-01T21:45:45.885Z,42.07
2022-12-01T21:50:53.865Z,42.12
2022-12-01T21:55:57.760Z,42.11
2022-12-01T22:01:01.237Z,42.01
2022-12-01T22:06:28.861Z,42.06
2022-12-01T22:11:28.253Z,41.78
2022-12-01T22:16:31.627Z,41.95
2022-12-01T22:21:35.042Z,42.82
2022-12-01T22:26:38.411Z,42.56
2022-12-01T22:31:41.788Z,42.39
2022-12-01T22:36:45.171Z,42.00
2022-12-01T22:41:48.560Z,42.08
2022-12-01T22:46:52.017Z,41.93
2022-12-01T22:51:55.488Z,41.86
2022-12-01T22:56:58.876Z,41.45
2022-12-01T23:02:03.345Z,41.66
2022-12-01T23:07:07.074Z,41.59
2022-12-01T23:12:10.500Z,41.74
2022-12-01T23:17:13.858Z,41.30
2022-12-01T23:22:17.356Z,41.52
2022-12-01T23:27:20.747Z,41.72
2022-12-01T23:32:24.223Z,41.47
2022-12-01T23:37:27.631Z,41.57
2022-12-01T23:42:31.050Z,41.80
2022-12-01T23:47:34.439Z,41.55
2022-12-01T23:52:37.984Z,41.65
2022-12-01T23:57:41.375Z,41.44
